sensor_id;sensor_type;location;lat;lon;timestamp;P1;durP1;ratioP1;P2;durP2;ratioP2
15342;SDS011;7771;48.478;8.936;2022-08-05T00:00:16;3.50;;;3.00;;
15342;SDS011;7771;48.478;8.936;2022-08-05T00:02:44;3.03;;;2.47;;
15342;SDS011;7771;48.478;8.936;2022-08-05T00:05:10;4.28;;;3.22;;
15342;SDS011;7771;48.478;8.936;2022-08-05T00:07:38;3.30;;;3.00;;
15342;SDS011;7771;48.478;8.936;2022-08-05T00:10:04;6.78;;;3.60;;
15342;SDS011;7771;48.478;8.936;2022-08-05T00:12:32;3.62;;;3.28;;
15342;SDS011;7771;48.478;8.936;2022-08-05T00:14:59;3.60;;;3.15;;
15342;SDS011;7771;48.478;8.936;2022-08-05T00:17:27;4.72;;;3.05;;
15342;SDS011;7771;48.478;8.936;2022-08-05T00:19:53;4.62;;;3.40;;
15342;SDS011;7771;48.478;8.936;2022-08-05T00:22:20;5.85;;;2.50;;
15342;SDS011;7771;48.478;8.936;2022-08-05T00:24:46;3.53;;;3.22;;
15342;SDS011;7771;48.478;8.936;2022-08-05T00:27:15;4.60;;;2.90;;
15342;SDS011;7771;48.478;8.936;2022-08-05T00:29:42;4.70;;;3.00;;
15342;SDS011;7771;48.478;8.936;2022-08-05T00:32:09;3.15;;;2.87;;
15342;SDS011;7771;48.478;8.936;2022-08-05T00:34:38;4.60;;;2.97;;
15342;SDS011;7771;48.478;8.936;2022-08-05T00:37:05;6.32;;;3.12;;
15342;SDS011;7771;48.478;8.936;2022-08-05T00:39:32;6.18;;;3.10;;
15342;SDS011;7771;48.478;8.936;2022-08-05T00:42:00;4.10;;;3.45;;
15342;SDS011;7771;48.478;8.936;2022-08-05T00:44:26;3.83;;;2.80;;
15342;SDS011;7771;48.478;8.936;2022-08-05T00:46:53;3.87;;;3.00;;
15342;SDS011;7771;48.478;8.936;2022-08-05T00:49:19;3.55;;;2.87;;
15342;SDS011;7771;48.478;8.936;2022-08-05T00:51:47;6.68;;;2.95;;
15342;SDS011;7771;48.478;8.936;2022-08-05T00:54:13;3.22;;;2.90;;
15342;SDS011;7771;48.478;8.936;2022-08-05T00:56:40;3.97;;;3.37;;
15342;SDS011;7771;48.478;8.936;2022-08-05T00:59:07;6.10;;;3.20;;
15342;SDS011;7771;48.478;8.936;2022-08-05T01:01:34;4.00;;;3.20;;
15342;SDS011;7771;48.478;8.936;2022-08-05T01:04:00;4.53;;;2.78;;
15342;SDS011;7771;48.478;8.936;2022-08-05T01:06:28;3.05;;;2.80;;
15342;SDS011;7771;48.478;8.936;2022-08-05T01:08:55;4.18;;;2.83;;
15342;SDS011;7771;48.478;8.936;2022-08-05T01:11:26;3.62;;;2.78;;
15342;SDS011;7771;48.478;8.936;2022-08-05T01:13:54;4.15;;;2.80;;
15342;SDS011;7771;48.478;8.936;2022-08-05T01:16:20;3.40;;;3.08;;
15342;SDS011;7771;48.478;8.936;2022-08-05T01:18:49;3.40;;;3.05;;
15342;SDS011;7771;48.478;8.936;2022-08-05T01:21:19;3.37;;;2.45;;
15342;SDS011;7771;48.478;8.936;2022-08-05T01:23:56;4.65;;;2.80;;
15342;SDS011;7771;48.478;8.936;2022-08-05T01:26:32;3.45;;;2.50;;
15342;SDS011;7771;48.478;8.936;2022-08-05T01:29:03;3.58;;;2.60;;
15342;SDS011;7771;48.478;8.936;2022-08-05T01:31:33;3.70;;;2.70;;
15342;SDS011;7771;48.478;8.936;2022-08-05T01:34:03;3.62;;;2.97;;
15342;SDS011;7771;48.478;8.936;2022-08-05T01:36:31;4.78;;;2.90;;
15342;SDS011;7771;48.478;8.936;2022-08-05T01:38:55;3.30;;;3.00;;
15342;SDS011;7771;48.478;8.936;2022-08-05T01:41:22;3.78;;;2.80;;
15342;SDS011;7771;48.478;8.936;2022-08-05T01:43:50;3.33;;;3.03;;
15342;SDS011;7771;48.478;8.936;2022-08-05T01:46:18;3.03;;;2.75;;
15342;SDS011;7771;48.478;8.936;2022-08-05T01:48:45;6.25;;;3.25;;
15342;SDS011;7771;48.478;8.936;2022-08-05T01:51:12;3.05;;;2.78;;
15342;SDS011;7771;48.478;8.936;2022-08-05T01:53:39;3.35;;;2.90;;
15342;SDS011;7771;48.478;8.936;2022-08-05T01:56:07;3.05;;;2.75;;
15342;SDS011;7771;48.478;8.936;2022-08-05T01:58:33;5.45;;;3.33;;
15342;SDS011;7771;48.478;8.936;2022-08-05T02:01:00;3.45;;;3.15;;
15342;SDS011;7771;48.478;8.936;2022-08-05T02:03:31;3.12;;;2.83;;
15342;SDS011;7771;48.478;8.936;2022-08-05T02:05:58;4.03;;;3.33;;
15342;SDS011;7771;48.478;8.936;2022-08-05T02:08:25;4.85;;;2.97;;
15342;SDS011;7771;48.478;8.936;2022-08-05T02:10:53;3.28;;;2.97;;
15342;SDS011;7771;48.478;8.936;2022-08-05T02:13:24;4.15;;;2.97;;
15342;SDS011;7771;48.478;8.936;2022-08-05T02:15:49;4.12;;;2.87;;
15342;SDS011;7771;48.478;8.936;2022-08-05T02:18:19;4.15;;;2.80;;
15342;SDS011;7771;48.478;8.936;2022-08-05T02:23:39;3.22;;;3.00;;
15342;SDS011;7771;48.478;8.936;2022-08-05T02:26:06;3.83;;;3.03;;
15342;SDS011;7771;48.478;8.936;2022-08-05T02:28:34;3.28;;;3.00;;
15342;SDS011;7771;48.478;8.936;2022-08-05T02:31:04;4.55;;;3.20;;
15342;SDS011;7771;48.478;8.936;2022-08-05T02:33:31;3.83;;;3.20;;
15342;SDS011;7771;48.478;8.936;2022-08-05T02:35:57;3.55;;;3.00;;
15342;SDS011;7771;48.478;8.936;2022-08-05T02:38:24;3.30;;;3.00;;
15342;SDS011;7771;48.478;8.936;2022-08-05T02:40:50;3.53;;;2.60;;
15342;SDS011;7771;48.478;8.936;2022-08-05T02:43:17;4.53;;;3.20;;
15342;SDS011;7771;48.478;8.936;2022-08-05T02:45:44;3.75;;;3.37;;
15342;SDS011;7771;48.478;8.936;2022-08-05T02:48:10;3.70;;;3.08;;
15342;SDS011;7771;48.478;8.936;2022-08-05T02:50:38;5.90;;;3.10;;
15342;SDS011;7771;48.478;8.936;2022-08-05T02:53:05;3.42;;;3.12;;
15342;SDS011;7771;48.478;8.936;2022-08-05T02:55:32;3.95;;;2.95;;
15342;SDS011;7771;48.478;8.936;2022-08-05T02:57:59;3.45;;;3.15;;
15342;SDS011;7771;48.478;8.936;2022-08-05T03:00:26;3.80;;;3.00;;
15342;SDS011;7771;48.478;8.936;2022-08-05T03:02:53;4.07;;;2.85;;
15342;SDS011;7771;48.478;8.936;2022-08-05T03:05:21;3.92;;;3.03;;
15342;SDS011;7771;48.478;8.936;2022-08-05T03:07:48;3.03;;;2.75;;
15342;SDS011;7771;48.478;8.936;2022-08-05T03:10:15;5.05;;;2.80;;
15342;SDS011;7771;48.478;8.936;2022-08-05T03:12:43;4.55;;;2.92;;
15342;SDS011;7771;48.478;8.936;2022-08-05T03:15:10;2.85;;;2.65;;
15342;SDS011;7771;48.478;8.936;2022-08-05T03:17:36;4.32;;;2.80;;
15342;SDS011;7771;48.478;8.936;2022-08-05T03:20:03;5.00;;;3.50;;
15342;SDS011;7771;48.478;8.936;2022-08-05T03:22:31;3.72;;;3.42;;
15342;SDS011;7771;48.478;8.936;2022-08-05T03:24:57;4.10;;;3.22;;
15342;SDS011;7771;48.478;8.936;2022-08-05T03:27:24;3.28;;;2.97;;
15342;SDS011;7771;48.478;8.936;2022-08-05T03:29:51;3.62;;;3.08;;
15342;SDS011;7771;48.478;8.936;2022-08-05T03:32:17;3.92;;;3.17;;
15342;SDS011;7771;48.478;8.936;2022-08-05T03:34:45;3.10;;;2.80;;
15342;SDS011;7771;48.478;8.936;2022-08-05T03:37:12;3.42;;;3.12;;
15342;SDS011;7771;48.478;8.936;2022-08-05T03:39:50;3.40;;;3.10;;
15342;SDS011;7771;48.478;8.936;2022-08-05T03:42:21;3.90;;;3.17;;
15342;SDS011;7771;48.478;8.936;2022-08-05T03:44:47;3.47;;;3.17;;
15342;SDS011;7771;48.478;8.936;2022-08-05T03:47:14;4.12;;;3.12;;
15342;SDS011;7771;48.478;8.936;2022-08-05T03:49:41;3.87;;;3.55;;
15342;SDS011;7771;48.478;8.936;2022-08-05T03:52:08;3.58;;;3.28;;
15342;SDS011;7771;48.478;8.936;2022-08-05T03:54:37;3.62;;;2.70;;
15342;SDS011;7771;48.478;8.936;2022-08-05T03:57:06;4.00;;;3.53;;
15342;SDS011;7771;48.478;8.936;2022-08-05T03:59:34;4.95;;;3.10;;
15342;SDS011;7771;48.478;8.936;2022-08-05T04:02:00;4.22;;;3.50;;
15342;SDS011;7771;48.478;8.936;2022-08-05T04:04:27;4.37;;;3.25;;
15342;SDS011;7771;48.478;8.936;2022-08-05T04:06:54;4.20;;;3.47;;
15342;SDS011;7771;48.478;8.936;2022-08-05T04:09:21;3.42;;;3.03;;
15342;SDS011;7771;48.478;8.936;2022-08-05T04:11:48;5.00;;;3.22;;
15342;SDS011;7771;48.478;8.936;2022-08-05T04:14:15;3.42;;;3.12;;
15342;SDS011;7771;48.478;8.936;2022-08-05T04:16:43;3.35;;;2.72;;
15342;SDS011;7771;48.478;8.936;2022-08-05T04:19:11;4.80;;;3.28;;
15342;SDS011;7771;48.478;8.936;2022-08-05T04:21:39;4.05;;;3.10;;
15342;SDS011;7771;48.478;8.936;2022-08-05T04:24:05;3.92;;;3.35;;
15342;SDS011;7771;48.478;8.936;2022-08-05T04:26:32;4.35;;;3.33;;
15342;SDS011;7771;48.478;8.936;2022-08-05T04:28:59;4.07;;;3.45;;
15342;SDS011;7771;48.478;8.936;2022-08-05T04:31:25;3.42;;;3.12;;
15342;SDS011;7771;48.478;8.936;2022-08-05T04:33:52;4.43;;;3.50;;
15342;SDS011;7771;48.478;8.936;2022-08-05T04:36:18;3.30;;;3.00;;
15342;SDS011;7771;48.478;8.936;2022-08-05T04:38:45;5.90;;;3.85;;
15342;SDS011;7771;48.478;8.936;2022-08-05T04:41:12;4.47;;;3.65;;
15342;SDS011;7771;48.478;8.936;2022-08-05T04:43:38;5.97;;;3.28;;
15342;SDS011;7771;48.478;8.936;2022-08-05T04:46:05;4.82;;;3.25;;
15342;SDS011;7771;48.478;8.936;2022-08-05T04:48:32;4.28;;;3.17;;
15342;SDS011;7771;48.478;8.936;2022-08-05T04:50:59;3.67;;;3.17;;
15342;SDS011;7771;48.478;8.936;2022-08-05T04:53:27;4.15;;;3.78;;
15342;SDS011;7771;48.478;8.936;2022-08-05T04:58:40;4.28;;;3.15;;
15342;SDS011;7771;48.478;8.936;2022-08-05T05:01:07;4.37;;;3.75;;
15342;SDS011;7771;48.478;8.936;2022-08-05T05:03:34;4.32;;;3.20;;
15342;SDS011;7771;48.478;8.936;2022-08-05T05:06:01;7.00;;;3.28;;
15342;SDS011;7771;48.478;8.936;2022-08-05T05:08:29;7.25;;;3.72;;
15342;SDS011;7771;48.478;8.936;2022-08-05T05:10:57;6.90;;;3.35;;
15342;SDS011;7771;48.478;8.936;2022-08-05T05:13:23;4.68;;;3.12;;
15342;SDS011;7771;48.478;8.936;2022-08-05T05:15:50;3.75;;;3.40;;
15342;SDS011;7771;48.478;8.936;2022-08-05T05:18:17;6.25;;;3.60;;
15342;SDS011;7771;48.478;8.936;2022-08-05T05:20:44;3.85;;;3.55;;
15342;SDS011;7771;48.478;8.936;2022-08-05T05:23:12;4.28;;;3.25;;
15342;SDS011;7771;48.478;8.936;2022-08-05T05:25:39;6.18;;;4.00;;
15342;SDS011;7771;48.478;8.936;2022-08-05T05:28:06;3.53;;;3.22;;
15342;SDS011;7771;48.478;8.936;2022-08-05T05:30:33;8.48;;;3.55;;
15342;SDS011;7771;48.478;8.936;2022-08-05T05:33:01;4.10;;;3.42;;
15342;SDS011;7771;48.478;8.936;2022-08-05T05:35:28;6.97;;;2.97;;
15342;SDS011;7771;48.478;8.936;2022-08-05T05:37:55;4.35;;;3.30;;
15342;SDS011;7771;48.478;8.936;2022-08-05T05:40:23;6.05;;;3.35;;
15342;SDS011;7771;48.478;8.936;2022-08-05T05:42:50;3.92;;;3.40;;
15342;SDS011;7771;48.478;8.936;2022-08-05T05:45:17;3.78;;;3.30;;
15342;SDS011;7771;48.478;8.936;2022-08-05T05:47:44;5.65;;;3.22;;
15342;SDS011;7771;48.478;8.936;2022-08-05T05:50:13;3.50;;;3.00;;
15342;SDS011;7771;48.478;8.936;2022-08-05T05:52:38;4.68;;;3.55;;
15342;SDS011;7771;48.478;8.936;2022-08-05T05:55:05;3.67;;;3.37;;
15342;SDS011;7771;48.478;8.936;2022-08-05T05:57:33;7.10;;;3.58;;
15342;SDS011;7771;48.478;8.936;2022-08-05T06:00:00;6.78;;;3.58;;
15342;SDS011;7771;48.478;8.936;2022-08-05T06:02:27;5.82;;;3.28;;
15342;SDS011;7771;48.478;8.936;2022-08-05T06:04:53;7.30;;;3.50;;
15342;SDS011;7771;48.478;8.936;2022-08-05T06:07:20;3.90;;;3.20;;
15342;SDS011;7771;48.478;8.936;2022-08-05T06:09:46;4.85;;;3.12;;
15342;SDS011;7771;48.478;8.936;2022-08-05T06:12:13;5.62;;;3.30;;
15342;SDS011;7771;48.478;8.936;2022-08-05T06:14:40;4.05;;;3.10;;
15342;SDS011;7771;48.478;8.936;2022-08-05T06:17:08;4.65;;;3.25;;
15342;SDS011;7771;48.478;8.936;2022-08-05T06:19:34;5.07;;;3.33;;
15342;SDS011;7771;48.478;8.936;2022-08-05T06:22:02;3.95;;;3.15;;
15342;SDS011;7771;48.478;8.936;2022-08-05T06:24:28;6.57;;;3.30;;
15342;SDS011;7771;48.478;8.936;2022-08-05T06:26:55;6.75;;;3.75;;
15342;SDS011;7771;48.478;8.936;2022-08-05T06:29:21;5.40;;;3.55;;
15342;SDS011;7771;48.478;8.936;2022-08-05T06:31:48;6.95;;;4.15;;
15342;SDS011;7771;48.478;8.936;2022-08-05T06:34:15;4.68;;;3.75;;
15342;SDS011;7771;48.478;8.936;2022-08-05T06:36:41;6.15;;;3.60;;
15342;SDS011;7771;48.478;8.936;2022-08-05T06:39:08;7.30;;;3.25;;
15342;SDS011;7771;48.478;8.936;2022-08-05T06:41:34;4.25;;;3.83;;
15342;SDS011;7771;48.478;8.936;2022-08-05T06:44:01;8.25;;;3.80;;
15342;SDS011;7771;48.478;8.936;2022-08-05T06:46:29;7.95;;;3.53;;
15342;SDS011;7771;48.478;8.936;2022-08-05T06:48:56;5.95;;;4.10;;
15342;SDS011;7771;48.478;8.936;2022-08-05T06:51:22;6.00;;;3.60;;
15342;SDS011;7771;48.478;8.936;2022-08-05T06:53:49;6.40;;;3.85;;
15342;SDS011;7771;48.478;8.936;2022-08-05T06:56:15;3.75;;;3.45;;
15342;SDS011;7771;48.478;8.936;2022-08-05T06:58:42;5.87;;;3.70;;
15342;SDS011;7771;48.478;8.936;2022-08-05T07:01:09;6.15;;;3.78;;
15342;SDS011;7771;48.478;8.936;2022-08-05T07:03:37;5.78;;;3.85;;
15342;SDS011;7771;48.478;8.936;2022-08-05T07:06:04;7.75;;;3.40;;
15342;SDS011;7771;48.478;8.936;2022-08-05T07:08:31;2.95;;;2.67;;
15342;SDS011;7771;48.478;8.936;2022-08-05T07:10:57;4.68;;;3.47;;
15342;SDS011;7771;48.478;8.936;2022-08-05T07:13:24;3.78;;;3.37;;
15342;SDS011;7771;48.478;8.936;2022-08-05T07:15:56;2.92;;;2.47;;
15342;SDS011;7771;48.478;8.936;2022-08-05T07:18:29;3.33;;;2.53;;
15342;SDS011;7771;48.478;8.936;2022-08-05T07:20:55;2.60;;;2.20;;
15342;SDS011;7771;48.478;8.936;2022-08-05T07:23:22;2.15;;;1.90;;
15342;SDS011;7771;48.478;8.936;2022-08-05T07:25:48;2.80;;;2.12;;
15342;SDS011;7771;48.478;8.936;2022-08-05T07:28:15;2.50;;;1.95;;
15342;SDS011;7771;48.478;8.936;2022-08-05T07:30:42;2.28;;;2.08;;
15342;SDS011;7771;48.478;8.936;2022-08-05T07:33:10;1.48;;;1.33;;
15342;SDS011;7771;48.478;8.936;2022-08-05T07:35:37;2.37;;;1.75;;
15342;SDS011;7771;48.478;8.936;2022-08-05T07:38:04;1.80;;;1.65;;
15342;SDS011;7771;48.478;8.936;2022-08-05T07:40:30;2.22;;;1.50;;
15342;SDS011;7771;48.478;8.936;2022-08-05T07:42:57;3.67;;;1.75;;
15342;SDS011;7771;48.478;8.936;2022-08-05T07:45:23;2.83;;;2.00;;
15342;SDS011;7771;48.478;8.936;2022-08-05T07:47:51;2.15;;;1.27;;
15342;SDS011;7771;48.478;8.936;2022-08-05T07:50:18;1.87;;;1.40;;
15342;SDS011;7771;48.478;8.936;2022-08-05T07:52:45;1.77;;;1.40;;
15342;SDS011;7771;48.478;8.936;2022-08-05T07:55:13;1.52;;;1.23;;
15342;SDS011;7771;48.478;8.936;2022-08-05T07:57:40;1.27;;;1.17;;
15342;SDS011;7771;48.478;8.936;2022-08-05T08:00:08;1.48;;;1.30;;
15342;SDS011;7771;48.478;8.936;2022-08-05T08:02:35;2.53;;;1.37;;
15342;SDS011;7771;48.478;8.936;2022-08-05T08:05:02;1.77;;;1.30;;
15342;SDS011;7771;48.478;8.936;2022-08-05T08:07:29;1.30;;;1.20;;
15342;SDS011;7771;48.478;8.936;2022-08-05T08:09:55;1.62;;;1.30;;
15342;SDS011;7771;48.478;8.936;2022-08-05T08:12:22;1.25;;;1.10;;
15342;SDS011;7771;48.478;8.936;2022-08-05T08:14:48;1.37;;;1.27;;
15342;SDS011;7771;48.478;8.936;2022-08-05T08:17:15;1.40;;;1.30;;
15342;SDS011;7771;48.478;8.936;2022-08-05T08:19:42;2.85;;;1.60;;
15342;SDS011;7771;48.478;8.936;2022-08-05T08:22:09;2.35;;;1.50;;
15342;SDS011;7771;48.478;8.936;2022-08-05T08:24:36;2.00;;;1.80;;
15342;SDS011;7771;48.478;8.936;2022-08-05T08:27:04;3.92;;;1.60;;
15342;SDS011;7771;48.478;8.936;2022-08-05T08:29:31;2.17;;;1.75;;
15342;SDS011;7771;48.478;8.936;2022-08-05T08:31:58;2.17;;;1.70;;
15342;SDS011;7771;48.478;8.936;2022-08-05T08:34:25;1.55;;;1.45;;
15342;SDS011;7771;48.478;8.936;2022-08-05T08:36:52;1.73;;;1.60;;
15342;SDS011;7771;48.478;8.936;2022-08-05T08:39:18;1.65;;;1.55;;
15342;SDS011;7771;48.478;8.936;2022-08-05T08:41:46;2.53;;;1.80;;
15342;SDS011;7771;48.478;8.936;2022-08-05T08:44:15;1.70;;;1.60;;
15342;SDS011;7771;48.478;8.936;2022-08-05T08:46:40;1.48;;;1.37;;
15342;SDS011;7771;48.478;8.936;2022-08-05T08:49:07;2.62;;;2.05;;
15342;SDS011;7771;48.478;8.936;2022-08-05T08:51:34;1.55;;;1.35;;
15342;SDS011;7771;48.478;8.936;2022-08-05T08:54:00;1.65;;;1.55;;
15342;SDS011;7771;48.478;8.936;2022-08-05T08:56:28;1.95;;;1.70;;
15342;SDS011;7771;48.478;8.936;2022-08-05T08:58:55;1.60;;;1.50;;
15342;SDS011;7771;48.478;8.936;2022-08-05T09:01:22;3.92;;;2.22;;
15342;SDS011;7771;48.478;8.936;2022-08-05T09:03:51;1.70;;;1.60;;
15342;SDS011;7771;48.478;8.936;2022-08-05T09:06:18;1.60;;;1.50;;
15342;SDS011;7771;48.478;8.936;2022-08-05T09:08:45;2.20;;;2.00;;
15342;SDS011;7771;48.478;8.936;2022-08-05T09:11:13;2.08;;;1.77;;
15342;SDS011;7771;48.478;8.936;2022-08-05T09:13:39;1.75;;;1.65;;
15342;SDS011;7771;48.478;8.936;2022-08-05T09:16:06;1.95;;;1.50;;
15342;SDS011;7771;48.478;8.936;2022-08-05T09:18:34;2.15;;;1.80;;
15342;SDS011;7771;48.478;8.936;2022-08-05T09:21:00;2.87;;;1.70;;
15342;SDS011;7771;48.478;8.936;2022-08-05T09:23:27;1.70;;;1.60;;
15342;SDS011;7771;48.478;8.936;2022-08-05T09:28:30;3.37;;;2.17;;
15342;SDS011;7771;48.478;8.936;2022-08-05T09:30:59;2.67;;;1.83;;
15342;SDS011;7771;48.478;8.936;2022-08-05T09:33:24;2.35;;;1.70;;
15342;SDS011;7771;48.478;8.936;2022-08-05T09:35:54;1.70;;;1.60;;
15342;SDS011;7771;48.478;8.936;2022-08-05T09:38:23;1.60;;;1.50;;
15342;SDS011;7771;48.478;8.936;2022-08-05T09:40:50;2.10;;;1.90;;
15342;SDS011;7771;48.478;8.936;2022-08-05T09:43:29;3.28;;;1.52;;
15342;SDS011;7771;48.478;8.936;2022-08-05T09:45:59;1.65;;;1.50;;
15342;SDS011;7771;48.478;8.936;2022-08-05T09:48:26;1.83;;;1.58;;
15342;SDS011;7771;48.478;8.936;2022-08-05T09:50:54;3.28;;;2.08;;
15342;SDS011;7771;48.478;8.936;2022-08-05T09:53:20;2.70;;;1.90;;
15342;SDS011;7771;48.478;8.936;2022-08-05T09:55:50;1.98;;;1.60;;
15342;SDS011;7771;48.478;8.936;2022-08-05T09:58:16;2.15;;;1.95;;
15342;SDS011;7771;48.478;8.936;2022-08-05T10:03:16;2.28;;;1.40;;
15342;SDS011;7771;48.478;8.936;2022-08-05T10:05:43;2.92;;;1.50;;
15342;SDS011;7771;48.478;8.936;2022-08-05T10:08:10;2.70;;;1.67;;
15342;SDS011;7771;48.478;8.936;2022-08-05T10:10:38;1.87;;;1.67;;
15342;SDS011;7771;48.478;8.936;2022-08-05T10:13:05;3.20;;;1.50;;
15342;SDS011;7771;48.478;8.936;2022-08-05T10:15:32;1.85;;;1.65;;
15342;SDS011;7771;48.478;8.936;2022-08-05T10:18:08;2.03;;;1.80;;
15342;SDS011;7771;48.478;8.936;2022-08-05T10:20:40;1.92;;;1.80;;
15342;SDS011;7771;48.478;8.936;2022-08-05T10:23:05;1.95;;;1.77;;
15342;SDS011;7771;48.478;8.936;2022-08-05T10:25:31;2.45;;;2.03;;
15342;SDS011;7771;48.478;8.936;2022-08-05T10:27:58;2.03;;;1.83;;
15342;SDS011;7771;48.478;8.936;2022-08-05T10:30:25;2.67;;;1.80;;
15342;SDS011;7771;48.478;8.936;2022-08-05T10:32:52;2.00;;;1.90;;
15342;SDS011;7771;48.478;8.936;2022-08-05T10:35:18;2.37;;;1.70;;
15342;SDS011;7771;48.478;8.936;2022-08-05T10:37:44;1.92;;;1.80;;
15342;SDS011;7771;48.478;8.936;2022-08-05T10:40:15;2.97;;;1.65;;
15342;SDS011;7771;48.478;8.936;2022-08-05T10:42:50;2.53;;;1.90;;
15342;SDS011;7771;48.478;8.936;2022-08-05T10:45:20;2.05;;;1.85;;
15342;SDS011;7771;48.478;8.936;2022-08-05T10:47:43;2.20;;;1.98;;
15342;SDS011;7771;48.478;8.936;2022-08-05T10:50:11;1.92;;;1.73;;
15342;SDS011;7771;48.478;8.936;2022-08-05T10:52:39;2.20;;;2.00;;
15342;SDS011;7771;48.478;8.936;2022-08-05T10:55:07;1.70;;;1.58;;
15342;SDS011;7771;48.478;8.936;2022-08-05T10:57:35;2.10;;;2.00;;
15342;SDS011;7771;48.478;8.936;2022-08-05T11:00:13;2.95;;;2.05;;
15342;SDS011;7771;48.478;8.936;2022-08-05T11:02:55;1.67;;;1.58;;
15342;SDS011;7771;48.478;8.936;2022-08-05T11:05:07;4.62;;;1.60;;
15342;SDS011;7771;48.478;8.936;2022-08-05T11:07:32;2.83;;;1.98;;
15342;SDS011;7771;48.478;8.936;2022-08-05T11:09:59;2.47;;;2.10;;
15342;SDS011;7771;48.478;8.936;2022-08-05T11:15:21;1.87;;;1.65;;
15342;SDS011;7771;48.478;8.936;2022-08-05T11:18:06;1.75;;;1.65;;
15342;SDS011;7771;48.478;8.936;2022-08-05T11:20:46;2.47;;;2.20;;
15342;SDS011;7771;48.478;8.936;2022-08-05T11:28:42;1.52;;;1.40;;
15342;SDS011;7771;48.478;8.936;2022-08-05T11:33:53;2.95;;;1.80;;
15342;SDS011;7771;48.478;8.936;2022-08-05T11:36:20;1.70;;;1.60;;
15342;SDS011;7771;48.478;8.936;2022-08-05T11:38:52;1.83;;;1.73;;
15342;SDS011;7771;48.478;8.936;2022-08-05T11:41:21;1.60;;;1.50;;
15342;SDS011;7771;48.478;8.936;2022-08-05T11:43:54;2.28;;;2.08;;
15342;SDS011;7771;48.478;8.936;2022-08-05T11:46:24;2.87;;;1.80;;
15342;SDS011;7771;48.478;8.936;2022-08-05T11:48:50;1.95;;;1.85;;
15342;SDS011;7771;48.478;8.936;2022-08-05T11:51:16;3.22;;;2.37;;
15342;SDS011;7771;48.478;8.936;2022-08-05T11:53:44;4.30;;;1.45;;
15342;SDS011;7771;48.478;8.936;2022-08-05T11:56:10;1.98;;;1.70;;
15342;SDS011;7771;48.478;8.936;2022-08-05T11:58:37;1.70;;;1.60;;
15342;SDS011;7771;48.478;8.936;2022-08-05T12:01:06;1.65;;;1.55;;
15342;SDS011;7771;48.478;8.936;2022-08-05T12:06:06;2.15;;;1.83;;
15342;SDS011;7771;48.478;8.936;2022-08-05T12:08:38;2.42;;;1.50;;
15342;SDS011;7771;48.478;8.936;2022-08-05T12:11:00;2.92;;;1.90;;
15342;SDS011;7771;48.478;8.936;2022-08-05T12:13:28;2.00;;;1.80;;
15342;SDS011;7771;48.478;8.936;2022-08-05T12:15:55;1.73;;;1.62;;
15342;SDS011;7771;48.478;8.936;2022-08-05T12:18:27;2.50;;;1.70;;
15342;SDS011;7771;48.478;8.936;2022-08-05T12:20:53;1.77;;;1.67;;
15342;SDS011;7771;48.478;8.936;2022-08-05T12:23:19;2.55;;;1.80;;
15342;SDS011;7771;48.478;8.936;2022-08-05T12:25:48;1.75;;;1.65;;
15342;SDS011;7771;48.478;8.936;2022-08-05T12:28:28;2.08;;;1.90;;
15342;SDS011;7771;48.478;8.936;2022-08-05T12:30:41;2.22;;;1.75;;
15342;SDS011;7771;48.478;8.936;2022-08-05T12:33:07;4.68;;;2.00;;
15342;SDS011;7771;48.478;8.936;2022-08-05T12:35:34;1.92;;;1.83;;
15342;SDS011;7771;48.478;8.936;2022-08-05T12:38:02;2.75;;;2.10;;
15342;SDS011;7771;48.478;8.936;2022-08-05T12:40:29;1.95;;;1.85;;
15342;SDS011;7771;48.478;8.936;2022-08-05T12:42:57;4.40;;;2.05;;
15342;SDS011;7771;48.478;8.936;2022-08-05T12:45:24;1.62;;;1.52;;
15342;SDS011;7771;48.478;8.936;2022-08-05T12:47:51;2.28;;;2.08;;
15342;SDS011;7771;48.478;8.936;2022-08-05T12:50:19;2.00;;;1.75;;
15342;SDS011;7771;48.478;8.936;2022-08-05T12:52:56;1.90;;;1.80;;
15342;SDS011;7771;48.478;8.936;2022-08-05T12:55:24;1.90;;;1.80;;
15342;SDS011;7771;48.478;8.936;2022-08-05T12:57:51;2.50;;;1.80;;
15342;SDS011;7771;48.478;8.936;2022-08-05T13:00:19;1.98;;;1.80;;
15342;SDS011;7771;48.478;8.936;2022-08-05T13:02:46;1.80;;;1.70;;
15342;SDS011;7771;48.478;8.936;2022-08-05T13:05:14;1.80;;;1.70;;
15342;SDS011;7771;48.478;8.936;2022-08-05T13:07:42;2.92;;;1.77;;
15342;SDS011;7771;48.478;8.936;2022-08-05T13:10:09;1.85;;;1.60;;
15342;SDS011;7771;48.478;8.936;2022-08-05T13:12:40;2.87;;;2.47;;
15342;SDS011;7771;48.478;8.936;2022-08-05T13:15:07;2.10;;;1.90;;
15342;SDS011;7771;48.478;8.936;2022-08-05T13:17:33;1.92;;;1.60;;
15342;SDS011;7771;48.478;8.936;2022-08-05T13:20:01;2.20;;;2.00;;
15342;SDS011;7771;48.478;8.936;2022-08-05T13:22:26;3.08;;;2.08;;
15342;SDS011;7771;48.478;8.936;2022-08-05T13:24:53;2.53;;;1.95;;
15342;SDS011;7771;48.478;8.936;2022-08-05T13:29:52;2.20;;;1.98;;
15342;SDS011;7771;48.478;8.936;2022-08-05T13:32:18;2.85;;;2.15;;
15342;SDS011;7771;48.478;8.936;2022-08-05T13:34:46;2.60;;;1.95;;
15342;SDS011;7771;48.478;8.936;2022-08-05T13:37:14;1.90;;;1.80;;
15342;SDS011;7771;48.478;8.936;2022-08-05T13:39:40;1.67;;;1.58;;
15342;SDS011;7771;48.478;8.936;2022-08-05T13:42:08;3.00;;;2.08;;
15342;SDS011;7771;48.478;8.936;2022-08-05T13:44:35;2.95;;;2.00;;
15342;SDS011;7771;48.478;8.936;2022-08-05T13:47:02;3.05;;;1.92;;
15342;SDS011;7771;48.478;8.936;2022-08-05T13:49:28;2.28;;;2.15;;
15342;SDS011;7771;48.478;8.936;2022-08-05T13:51:55;2.53;;;1.77;;
15342;SDS011;7771;48.478;8.936;2022-08-05T13:54:22;2.37;;;2.17;;
15342;SDS011;7771;48.478;8.936;2022-08-05T13:56:48;3.35;;;1.90;;
15342;SDS011;7771;48.478;8.936;2022-08-05T13:59:15;2.42;;;1.83;;
15342;SDS011;7771;48.478;8.936;2022-08-05T14:01:41;3.35;;;2.85;;
15342;SDS011;7771;48.478;8.936;2022-08-05T14:04:09;2.20;;;2.00;;
15342;SDS011;7771;48.478;8.936;2022-08-05T14:06:42;2.70;;;2.00;;
15342;SDS011;7771;48.478;8.936;2022-08-05T14:09:09;2.40;;;2.20;;
15342;SDS011;7771;48.478;8.936;2022-08-05T14:11:36;3.78;;;2.33;;
15342;SDS011;7771;48.478;8.936;2022-08-05T14:14:04;2.42;;;2.08;;
15342;SDS011;7771;48.478;8.936;2022-08-05T14:16:31;2.60;;;2.40;;
15342;SDS011;7771;48.478;8.936;2022-08-05T14:18:59;3.12;;;2.67;;
15342;SDS011;7771;48.478;8.936;2022-08-05T14:21:26;6.32;;;2.80;;
15342;SDS011;7771;48.478;8.936;2022-08-05T14:23:52;8.20;;;3.17;;
15342;SDS011;7771;48.478;8.936;2022-08-05T14:26:19;3.03;;;2.40;;
15342;SDS011;7771;48.478;8.936;2022-08-05T14:28:46;2.95;;;2.58;;
15342;SDS011;7771;48.478;8.936;2022-08-05T14:31:12;6.78;;;3.72;;
15342;SDS011;7771;48.478;8.936;2022-08-05T14:33:39;7.18;;;3.60;;
15342;SDS011;7771;48.478;8.936;2022-08-05T14:36:05;8.75;;;4.60;;
15342;SDS011;7771;48.478;8.936;2022-08-05T14:38:32;6.57;;;3.35;;
15342;SDS011;7771;48.478;8.936;2022-08-05T14:41:01;7.40;;;2.97;;
15342;SDS011;7771;48.478;8.936;2022-08-05T14:43:27;6.55;;;3.08;;
15342;SDS011;7771;48.478;8.936;2022-08-05T14:45:54;7.05;;;3.28;;
15342;SDS011;7771;48.478;8.936;2022-08-05T14:48:21;4.43;;;3.10;;
15342;SDS011;7771;48.478;8.936;2022-08-05T14:50:49;4.43;;;2.90;;
15342;SDS011;7771;48.478;8.936;2022-08-05T14:53:16;3.05;;;2.70;;
15342;SDS011;7771;48.478;8.936;2022-08-05T14:55:44;2.72;;;2.53;;
15342;SDS011;7771;48.478;8.936;2022-08-05T14:58:11;2.85;;;2.55;;
15342;SDS011;7771;48.478;8.936;2022-08-05T15:00:39;4.25;;;2.70;;
15342;SDS011;7771;48.478;8.936;2022-08-05T15:03:06;4.10;;;2.53;;
15342;SDS011;7771;48.478;8.936;2022-08-05T15:05:33;3.87;;;2.62;;
15342;SDS011;7771;48.478;8.936;2022-08-05T15:07:59;3.33;;;3.03;;
15342;SDS011;7771;48.478;8.936;2022-08-05T15:10:25;2.58;;;2.37;;
15342;SDS011;7771;48.478;8.936;2022-08-05T15:12:52;2.53;;;2.33;;
15342;SDS011;7771;48.478;8.936;2022-08-05T15:15:19;2.90;;;2.70;;
15342;SDS011;7771;48.478;8.936;2022-08-05T15:17:45;4.15;;;2.67;;
15342;SDS011;7771;48.478;8.936;2022-08-05T15:20:12;2.78;;;2.20;;
15342;SDS011;7771;48.478;8.936;2022-08-05T15:22:39;3.90;;;2.53;;
15342;SDS011;7771;48.478;8.936;2022-08-05T15:25:07;4.28;;;2.47;;
15342;SDS011;7771;48.478;8.936;2022-08-05T15:27:34;3.55;;;2.30;;